Terminal Aerodrome Forecast
Issued by NWS Northern Indiana

Home | Current Version | Previous Version | Text Only | Print | Product List | Glossary Off
Versions: 1 2 3 4 5 6 7 8 9 10 11 12 13 14 15 16

000
FTUS43 KIWX 270949 AAA
TAFFWA
TAF AMD
KFWA 270949Z 2710/2806 06016KT P6SM OVC007
     FM271400 07017G24KT P6SM SCT010 BKN025
     FM271800 08018G26KT P6SM SCT015 BKN040
     FM280200 07017G25KT P6SM OVC020=

USA.gov is the U.S. government's official web portal to all federal, state and local government web resources and services.